ADDS METAR Data INFO
IDs: Format: Raw Decoded Include TAF

Data at: 1749 UTC 15 Dec 2017

KE80 151735Z AUTO 00000KT 10SM CLR 03/M08 A3034 RMK AO2 T00271082
KE80 151715Z AUTO 32003KT 10SM CLR 02/M08 A3035 RMK AO2 T00171085
KE80 151655Z AUTO 00000KT 10SM CLR 01/M09 A3036 RMK AO2 T00071086
KE80 151635Z AUTO 00000KT 10SM CLR 00/M09 A3036 RMK AO2 T00001087
KE80 151615Z AUTO 30004KT 10SM CLR M01/M09 A3036 RMK AO2 T10091091
KE80 151555Z AUTO 31004KT 10SM CLR M02/M09 A3036 RMK AO2 T10171095
KE80 151535Z AUTO 31004KT 10SM CLR M03/M10 A3036 RMK AO2 T10321098
KE80 151515Z AUTO 31004KT 10SM CLR M03/M10 A3035 RMK AO2 T10321097
KE80 151455Z AUTO 36004KT 10SM CLR M05/M10 A3035 RMK AO2 T10491101
KE80 151435Z AUTO 35004KT 10SM CLR M08/M12 A3034 RMK AO2 T10801117
KE80 151415Z AUTO 00000KT 10SM CLR M09/M12 A3035 RMK AO2 T10921124
KE80 151355Z AUTO 32005KT 10SM CLR M08/M12 A3035 RMK AO2 T10801121
KE80 151335Z AUTO 00000KT 10SM CLR M09/M12 A3034 RMK AO2 T10891124
KE80 151315Z AUTO 00000KT 10SM CLR M08/M12 A3035 RMK AO2 T10851120
KE80 151255Z AUTO 29006KT 10SM CLR M08/M12 A3034 RMK AO2 T10821120
KE80 151235Z AUTO 31005KT 10SM CLR M08/M12 A3033 RMK AO2 T10771120
KE80 151215Z AUTO 32007KT 10SM CLR M07/M12 A3034 RMK AO2 T10721119
KE80 151155Z AUTO 31006KT 10SM CLR M08/M12 A3034 RMK AO2 70003 T10801125 11021 21080
KE80 151135Z AUTO 29004KT 10SM CLR M07/M13 A3033 RMK AO2 T10741126
KE80 151115Z AUTO 00000KT 10SM CLR M08/M13 A3033 RMK AO2 T10771129
KE80 151055Z AUTO 00000KT 10SM CLR M06/M12 A3033 RMK AO2 T10641117
KE80 151035Z AUTO 00000KT 10SM CLR M06/M12 A3033 RMK AO2 T10601123
KE80 151015Z AUTO 00000KT 10SM CLR M05/M12 A3034 RMK AO2 T10541117
KE80 150955Z AUTO 00000KT 10SM CLR M06/M12 A3033 RMK AO2 T10571117
KE80 150935Z AUTO 30004KT 10SM CLR M05/M12 A3033 RMK AO2 T10521116
KE80 150915Z AUTO 29004KT 10SM CLR M05/M11 A3033 RMK AO2 T10471111
KE80 150855Z AUTO 30005KT 10SM CLR M05/M11 A3032 RMK AO2 T10481111
KE80 150835Z AUTO 28005KT 10SM CLR M06/M12 A3032 RMK AO2 T10601120
KE80 150815Z AUTO 27006KT 10SM CLR M06/M12 A3032 RMK AO2 T10591118
KE80 150755Z AUTO 27006KT 10SM CLR M06/M12 A3030 RMK AO2 T10571121
KE80 150735Z AUTO 27006KT 10SM CLR M06/M12 A3030 RMK AO2 T10571124
KE80 150715Z AUTO 29004KT 10SM CLR M04/M12 A3030 RMK AO2 T10441121
KE80 150655Z AUTO 28005KT 10SM CLR M04/M12 A3030 RMK AO2 T10421119
KE80 150635Z AUTO 28007KT 10SM CLR M04/M12 A3030 RMK AO2 T10401117
KE80 150615Z AUTO 26006KT 10SM CLR M04/M12 A3030 RMK AO2 T10401122
KE80 150555Z AUTO 26006KT 10SM CLR M02/M11 A3030 RMK AO2 T10231111 10054 21038 401041085
KE80 150535Z AUTO 27006KT 10SM CLR M03/M12 A3029 RMK AO2 T10281122
KE80 150515Z AUTO 29006KT 10SM CLR M03/M13 A3029 RMK AO2 T10321129
KE80 150455Z AUTO 30006KT 10SM CLR M03/M13 A3028 RMK AO2 T10281127
KE80 150435Z AUTO 27007KT 10SM CLR M04/M13 A3027 RMK AO2 T10361130
KE80 150415Z AUTO 29006KT 10SM CLR M03/M13 A3025 RMK AO2 T10351130
KE80 150355Z AUTO 27007KT 10SM CLR M03/M12 A3025 RMK AO2 T10291125
KE80 150335Z AUTO 30005KT 10SM CLR M02/M13 A3025 RMK AO2 T10241126
KE80 150315Z AUTO 00000KT 10SM CLR M01/M12 A3024 RMK AO2 T10121124
KE80 150255Z AUTO 00000KT 10SM CLR 01/M11 A3023 RMK AO2 T00101113
KE80 150235Z AUTO 24004KT 10SM CLR 01/M12 A3022 RMK AO2 T00101121
KE80 150215Z AUTO 24003KT 10SM CLR 01/M12 A3022 RMK AO2 T00121120
KE80 150155Z AUTO 24003KT 10SM CLR 01/M12 A3021 RMK AO2 T00121123
KE80 150135Z AUTO 00000KT 10SM CLR 02/M12 A3020 RMK AO2 T00211121
KE80 150115Z AUTO 28003KT 10SM CLR 03/M12 A3019 RMK AO2 T00301122
KE80 150055Z AUTO 31003KT 10SM CLR 03/M12 A3018 RMK AO2 T00321121
KE80 150035Z AUTO 00000KT 10SM CLR 03/M12 A3016 RMK AO2 T00311122
KE80 150015Z AUTO 23004KT 10SM CLR 04/M12 A3014 RMK AO2 T00391121
KE80 142355Z AUTO 23004KT 10SM CLR 06/M12 A3014 RMK AO2 60003 T00551120 10104 20055
KE80 142335Z AUTO 25003KT 10SM CLR 08/M13 A3014 RMK AO2 T00771129
KE80 142315Z AUTO 00000KT 10SM CLR 09/M13 A3014 RMK AO2 T00891127
KE80 142255Z AUTO 28004KT 10SM CLR 09/M13 A3014 RMK AO2 T00931127
KE80 142235Z AUTO 31007KT 10SM CLR 10/M12 A3014 RMK AO2 T00951125
KE80 142215Z AUTO 00000KT 10SM CLR 10/M12 A3014 RMK AO2 T00951125
KE80 142155Z AUTO 33004KT 10SM CLR 10/M12 A3013 RMK AO2 T00991125
KE80 142135Z AUTO 33004KT 10SM CLR 10/M12 A3012 RMK AO2 T01001125
KE80 142115Z AUTO 30003KT 10SM CLR 10/M12 A3012 RMK AO2 T01001124
KE80 142055Z AUTO 29003KT 10SM CLR 10/M12 A3011 RMK AO2 60003 T00981124
KE80 142035Z AUTO 00000KT 10SM CLR 10/M12 A3011 RMK AO2 T00971123
KE80 142015Z AUTO 02004KT 10SM CLR 10/M12 A3012 RMK AO2 T01001121
KE80 141955Z AUTO 02009KT 10SM CLR 10/M12 A3012 RMK AO2 T01031120
KE80 141935Z AUTO 35008KT 10SM CLR 10/M12 A3012 RMK AO2 T00961121
KE80 141915Z AUTO 31004KT 10SM SCT065 10/M13 A3012 RMK AO2 T00951127
KE80 141855Z AUTO 30009G14KT 10SM BKN065 09/M13 A3014 RMK AO2 P0003 T00881133
KE80 141835Z AUTO 32011G14KT 10SM CLR 08/M13 A3014 RMK AO2 P0003 T00801133
KE80 141815Z AUTO 35010KT CLR 07/M14 A3014 RMK AO2 P0003 T00661136 PWINO
KE80 141755Z AUTO 34008KT 10SM TS CLR 07/M14 A3014 RMK AO2 LTG DSNT ALQS T00651140 10068 21066
KE80 141735Z AUTO 33010KT 10SM CLR 06/M14 A3014 RMK AO2 T00611140
KE80 141715Z AUTO 31009KT 10SM CLR 05/M14 A3014 RMK AO2 T00521141
KE80 141655Z AUTO 30010KT 10SM CLR 04/M14 A3012 RMK AO2 T00381145
KE80 141635Z AUTO 28007KT 10SM CLR 03/M15 A3012 RMK AO2 T00311147
KE80 141615Z AUTO 28008KT 10SM CLR 03/M15 A3011 RMK AO2 T00291147
KE80 141555Z AUTO 27009KT 10SM CLR 01/M15 A3010 RMK AO2 T00141150
KE80 141535Z AUTO 29009KT 10SM CLR 00/M15 A3009 RMK AO2 T10031154
KE80 141515Z AUTO 30008KT 10SM CLR M03/M16 A3009 RMK AO2 T10331161
KE80 141455Z AUTO 28008KT 10SM CLR M05/M15 A3008 RMK AO2 T10481150
KE80 141435Z AUTO 02003KT 10SM CLR M05/M15 A3007 RMK AO2 T10521153
KE80 141415Z AUTO 04003KT 10SM CLR M06/M15 A3006 RMK AO2 T10571154
KE80 141355Z AUTO 05005KT 10SM CLR M06/M16 A3006 RMK AO2 T10631163
KE80 141335Z AUTO 34005KT 10SM CLR M06/M17 A3006 RMK AO2 T10641166
KE80 141315Z AUTO 00000KT 10SM CLR M06/M16 A3004 RMK AO2 T10601165
KE80 141255Z AUTO 00000KT 10SM CLR M05/M16 A3003 RMK AO2 T10531165
KE80 141235Z AUTO 00000KT 10SM CLR M05/M16 A3002 RMK AO2 T10551165
KE80 141215Z AUTO 30005KT 10SM CLR M06/M16 A3001 RMK AO2 T10571165
KE80 141155Z AUTO 30005KT 10SM CLR M06/M16 A3001 RMK AO2 T10611165 11017 21085
KE80 141135Z AUTO 31004KT 10SM CLR M06/M16 A3001 RMK AO2 T10591163
KE80 141115Z AUTO 33005KT 10SM CLR M08/M16 A3001 RMK AO2 T10771164
KE80 141055Z AUTO 00000KT 10SM CLR M07/M16 A3001 RMK AO2 T10711165
KE80 141035Z AUTO 00000KT 10SM CLR M06/M16 A3001 RMK AO2 T10621165
KE80 141015Z AUTO 34005KT 10SM CLR M05/M16 A3001 RMK AO2 T10541160
KE80 140955Z AUTO 33005KT 10SM CLR M04/M16 A3001 RMK AO2 T10371160
KE80 140935Z AUTO 32003KT 10SM CLR M04/M16 A3001 RMK AO2 T10401156
KE80 140915Z AUTO 00000KT 10SM CLR M05/M16 A3000 RMK AO2 T10481157
KE80 140855Z AUTO 04004KT 10SM CLR M05/M16 A3000 RMK AO2 T10501163
KE80 140835Z AUTO 06004KT 10SM CLR M05/M16 A2999 RMK AO2 T10511165
KE80 140815Z AUTO 05003KT 10SM CLR M05/M16 A3000 RMK AO2 T10541165
KE80 140755Z AUTO 00000KT 10SM CLR M06/M16 A3000 RMK AO2 T10591164
KE80 140735Z AUTO 01005KT 10SM CLR M05/M16 A3000 RMK AO2 T10461164
KE80 140715Z AUTO 36004KT 10SM CLR M05/M17 A3001 RMK AO2 T10481166
KE80 140655Z AUTO 36004KT 10SM CLR M02/M16 A3001 RMK AO2 T10251162
KE80 140635Z AUTO 02003KT 10SM CLR M04/M17 A3002 RMK AO2 T10441167
KE80 140555Z AUTO 00000KT 10SM CLR M02/M17 A3002 RMK AO2 T10251166 10102 21025 401261089